Time;durP1;ratioP1;P1;durP2;ratioP2;P2;SDS_P1;SDS_P2;PMS_P1;PMS_P2;Temp;Humidity;BMP_temperature;BMP_pressure;BME280_temperature;BME280_humidity;BME280_pressure;Samples;Min_cycle;Max_cycle;Signal;HPM_P1;HPM_P2
2023/12/20 00:01:30;;;;;;;;;4.33;4.33;;;;;9.08;100.00;102027.66;5015754;28;45527;-81
2023/12/20 00:04:23;;;;;;;;;5.00;5.00;;;;;9.27;100.00;102044.81;5044609;28;45507;-81
2023/12/20 00:07:11;;;;;;;;;5.00;4.00;;;;;9.63;100.00;102121.50;5044704;28;45539;-81
2023/12/20 00:09:37;;;;;;;;;5.00;4.67;;;;;9.01;100.00;102020.75;5039471;28;45331;-79
2023/12/20 00:12:14;;;;;;;;;4.33;4.33;;;;;9.40;100.00;102099.09;5037730;28;45380;-81
2023/12/20 00:14:39;;;;;;;;;3.00;3.00;;;;;8.97;100.00;102034.91;5039635;28;46117;-81
2023/12/20 00:17:14;;;;;;;;;4.67;3.00;;;;;9.00;100.00;102063.88;5038757;28;45255;-81
2023/12/20 00:19:40;;;;;;;;;4.00;4.00;;;;;8.95;100.00;102055.19;5036903;28;45409;-81
2023/12/20 00:22:05;;;;;;;;;0.67;0.67;;;;;9.00;100.00;102090.25;5050352;28;45291;-80
2023/12/20 00:24:31;;;;;;;;;4.00;2.00;;;;;9.17;100.00;102135.66;5032165;28;46842;-80
2023/12/20 00:26:56;;;;;;;;;4.00;3.00;;;;;9.22;100.00;102143.50;5037062;28;63566;-81
2023/12/20 00:29:21;;;;;;;;;0.00;0.00;;;;;9.22;100.00;102154.94;5021855;28;45366;-81
2023/12/20 00:31:47;;;;;;;;;1.67;0.67;;;;;9.07;100.00;102133.22;5020342;28;45563;-81
2023/12/20 00:34:12;;;;;;;;;1.67;1.00;;;;;9.09;100.00;102150.81;5020957;28;46681;-80
2023/12/20 00:36:37;;;;;;;;;2.00;0.00;;;;;8.92;100.00;102134.41;5021483;28;47119;-81
2023/12/20 00:39:03;;;;;;;;;1.67;1.00;;;;;8.89;100.00;102131.84;5020635;28;55847;-80
2023/12/20 00:41:28;;;;;;;;;4.00;2.00;;;;;8.89;100.00;102134.47;5051052;28;45585;-81
2023/12/20 00:43:53;;;;;;;;;0.33;0.33;;;;;8.75;100.00;102116.25;5019894;28;67499;-81
2023/12/20 00:46:19;;;;;;;;;1.00;1.00;;;;;8.78;100.00;102137.31;5038845;28;45515;-80
2023/12/20 00:48:45;;;;;;;;;2.33;0.00;;;;;8.79;100.00;102146.97;5021238;28;45421;-81
2023/12/20 00:51:11;;;;;;;;;0.67;0.67;;;;;8.75;100.00;102153.19;5037540;28;45581;-81
2023/12/20 00:53:36;;;;;;;;;1.00;1.00;;;;;8.70;100.00;102155.03;5037482;28;46500;-81
2023/12/20 00:56:01;;;;;;;;;1.00;1.00;;;;;8.58;100.00;102144.69;5037950;28;53683;-79
2023/12/20 00:58:27;;;;;;;;;0.00;0.00;;;;;8.49;100.00;102142.22;5050785;28;45453;-80
2023/12/20 01:00:53;;;;;;;;;0.00;0.00;;;;;8.54;100.00;102164.09;5039109;28;45450;-81
2023/12/20 01:03:19;;;;;;;;;2.33;0.00;;;;;8.44;100.00;102141.47;5020305;28;45828;-81
2023/12/20 01:05:44;;;;;;;;;0.00;0.00;;;;;8.47;100.00;102159.84;5044071;28;45544;-81
2023/12/20 01:08:09;;;;;;;;;1.00;1.00;;;;;8.40;100.00;102158.22;5032776;28;45346;-81
2023/12/20 01:10:35;;;;;;;;;2.67;1.00;;;;;8.30;100.00;102151.34;5038376;28;45548;-81
2023/12/20 01:13:00;;;;;;;;;1.67;1.67;;;;;8.29;100.00;102178.59;5037908;28;53612;-81
2023/12/20 01:15:25;;;;;;;;;2.00;1.00;;;;;8.24;100.00;102176.00;5020252;28;45346;-80
2023/12/20 01:17:51;;;;;;;;;1.00;1.00;;;;;8.13;100.00;102163.88;5028644;28;45449;-81
2023/12/20 01:20:17;;;;;;;;;1.33;0.67;;;;;8.07;100.00;102167.50;5020617;28;45284;-80
2023/12/20 01:22:42;;;;;;;;;2.00;1.00;;;;;7.97;100.00;102165.88;5036850;28;63409;-81
2023/12/20 01:25:08;;;;;;;;;3.00;1.00;;;;;8.07;100.00;102179.78;5038932;28;45712;-80
2023/12/20 01:27:33;;;;;;;;;1.00;1.00;;;;;7.97;100.00;102167.63;5039962;28;45275;-80
2023/12/20 01:29:58;;;;;;;;;1.33;1.00;;;;;7.90;100.00;102166.84;5041884;28;45408;-81
2023/12/20 01:32:24;;;;;;;;;0.00;0.00;;;;;8.00;100.00;102167.59;5037726;28;58702;-80
2023/12/20 01:34:49;;;;;;;;;1.00;0.33;;;;;7.90;100.00;102161.59;5021030;28;45496;-80
2023/12/20 01:37:15;;;;;;;;;2.33;0.67;;;;;7.79;100.00;102150.31;5018385;28;45489;-80
2023/12/20 01:39:40;;;;;;;;;1.00;1.00;;;;;7.81;100.00;102173.13;5017426;28;45472;-81
2023/12/20 01:42:05;;;;;;;;;0.33;0.33;;;;;7.67;100.00;102155.78;5041286;28;48615;-80
2023/12/20 01:44:31;;;;;;;;;2.00;1.00;;;;;7.71;100.00;102171.53;5025203;28;45363;-80
2023/12/20 01:46:57;;;;;;;;;3.00;2.00;;;;;7.76;100.00;102177.56;5024900;28;45303;-81
2023/12/20 01:49:23;;;;;;;;;1.33;0.00;;;;;7.72;100.00;102169.75;5041120;28;45520;-81
2023/12/20 01:51:49;;;;;;;;;2.00;2.00;;;;;7.70;100.00;102180.31;5028605;28;48032;-80
2023/12/20 01:54:15;;;;;;;;;2.00;2.00;;;;;7.75;100.00;102181.13;5052800;28;45331;-80
2023/12/20 01:56:42;;;;;;;;;1.00;1.00;;;;;7.72;100.00;102173.25;5037967;28;45301;-80
2023/12/20 01:59:08;;;;;;;;;1.33;1.33;;;;;7.69;100.00;102164.53;5038263;28;45393;-80
2023/12/20 02:01:34;;;;;;;;;4.67;2.00;;;;;7.76;100.00;102182.84;5018969;28;47961;-80
2023/12/20 02:04:00;;;;;;;;;2.00;1.00;;;;;7.83;100.00;102215.25;5040776;28;45352;-80
2023/12/20 02:06:31;;;;;;;;;2.00;1.33;;;;;7.74;100.00;102189.91;5042396;28;45383;-80
2023/12/20 02:08:57;;;;;;;;;1.00;0.00;;;;;7.71;100.00;102184.69;5019509;28;45417;-80
2023/12/20 02:11:23;;;;;;;;;1.00;1.00;;;;;7.75;100.00;102186.41;5018994;28;45596;-81
2023/12/20 02:13:48;;;;;;;;;2.33;1.00;;;;;7.92;100.00;102207.22;5019800;28;45336;-81
2023/12/20 02:16:13;;;;;;;;;1.00;1.00;;;;;7.91;100.00;102208.13;5029214;28;45362;-80
2023/12/20 02:18:39;;;;;;;;;1.00;1.00;;;;;7.91;100.00;102207.25;5021122;28;45512;-81
2023/12/20 02:21:05;;;;;;;;;1.00;0.00;;;;;7.88;100.00;102205.53;5021776;28;46126;-81
2023/12/20 02:23:31;;;;;;;;;1.67;1.00;;;;;7.82;100.00;102211.72;5019469;28;45441;-80
2023/12/20 02:25:58;;;;;;;;;7.33;1.67;;;;;7.81;100.00;102214.41;5020374;28;45365;-80
2023/12/20 02:28:24;;;;;;;;;1.00;1.00;;;;;7.72;100.00;102198.72;5024146;28;45483;-80
2023/12/20 02:30:52;;;;;;;;;2.33;1.00;;;;;7.84;100.00;102217.00;5040937;28;46536;-80
2023/12/20 02:33:18;;;;;;;;;0.00;0.00;;;;;7.83;100.00;102213.47;5034704;28;45528;-80
2023/12/20 02:35:43;;;;;;;;;2.67;1.00;;;;;7.64;100.00;102192.66;5034209;28;58338;-80
2023/12/20 02:38:08;;;;;;;;;2.00;2.00;;;;;7.70;100.00;102208.38;5042003;28;45277;-80
2023/12/20 02:40:34;;;;;;;;;1.00;1.00;;;;;7.70;100.00;102218.91;5040890;28;62703;-81
2023/12/20 02:42:59;;;;;;;;;3.00;2.00;;;;;7.73;100.00;102229.41;5047972;28;45418;-80
2023/12/20 02:45:25;;;;;;;;;1.67;1.67;;;;;7.55;100.00;102209.47;5046179;28;45632;-80
2023/12/20 02:47:50;;;;;;;;;2.00;1.00;;;;;7.62;100.00;102226.94;5045271;28;45520;-80
2023/12/20 02:50:15;;;;;;;;;1.00;1.00;;;;;7.59;100.00;102228.72;5039195;28;55095;-80
2023/12/20 02:52:44;;;;;;;;;3.33;1.33;;;;;7.61;100.00;102225.19;5027586;28;45486;-80
2023/12/20 02:55:10;;;;;;;;;0.67;0.67;;;;;7.53;100.00;102220.88;5037600;28;45376;-81
2023/12/20 02:57:36;;;;;;;;;1.00;1.00;;;;;7.51;100.00;102218.28;5013699;28;47687;-80
2023/12/20 03:00:01;;;;;;;;;3.67;2.00;;;;;7.49;100.00;102221.84;5041630;28;45905;-80
2023/12/20 03:02:27;;;;;;;;;3.00;1.67;;;;;7.49;100.00;102235.88;5040842;28;45385;-80
2023/12/20 03:04:52;;;;;;;;;4.00;2.00;;;;;7.46;100.00;102230.63;5037926;28;44766;-81
2023/12/20 03:07:17;;;;;;;;;3.67;2.00;;;;;7.45;100.00;102236.78;5022126;28;45451;-81
2023/12/20 03:09:43;;;;;;;;;3.67;2.00;;;;;7.37;100.00;102233.34;5022047;28;46810;-80
2023/12/20 03:12:08;;;;;;;;;3.00;2.00;;;;;7.34;100.00;102234.28;5040990;28;45297;-80
2023/12/20 03:14:33;;;;;;;;;2.33;1.67;;;;;7.30;100.00;102213.25;5020734;28;45295;-80
2023/12/20 03:16:58;;;;;;;;;2.00;1.00;;;;;7.34;100.00;102214.97;5014018;28;57056;-80
2023/12/20 03:19:24;;;;;;;;;7.67;3.00;;;;;7.25;100.00;102209.81;5029464;28;45451;-80
2023/12/20 03:21:53;;;;;;;;;4.67;2.33;;;;;7.34;100.00;102228.13;5042476;28;45426;-80
2023/12/20 03:24:18;;;;;;;;;2.00;1.67;;;;;7.33;100.00;102229.88;5038751;28;45519;-80
2023/12/20 03:26:43;;;;;;;;;2.00;1.00;;;;;7.28;100.00;102228.19;5032984;28;45496;-80
2023/12/20 03:29:08;;;;;;;;;2.00;1.00;;;;;7.21;100.00;102208.09;5041745;28;54710;-81
2023/12/20 03:31:36;;;;;;;;;3.00;1.33;;;;;7.29;100.00;102225.56;5040656;28;59244;-80
2023/12/20 03:34:01;;;;;;;;;1.67;1.00;;;;;7.23;100.00;102222.13;5040076;28;45385;-80
2023/12/20 03:36:26;;;;;;;;;2.00;0.33;;;;;7.12;100.00;102193.28;5039000;28;45349;-80
2023/12/20 03:38:52;;;;;;;;;0.67;0.00;;;;;7.18;100.00;102221.28;5037862;28;47208;-80
2023/12/20 03:41:17;;;;;;;;;0.33;0.33;;;;;7.21;100.00;102230.03;5044983;28;45312;-80
2023/12/20 03:43:42;;;;;;;;;3.67;1.00;;;;;7.14;100.00;102222.19;5046658;28;53263;-80
2023/12/20 03:46:08;;;;;;;;;1.00;1.00;;;;;7.05;100.00;102211.78;5044529;28;45378;-80
2023/12/20 03:48:33;;;;;;;;;0.00;0.00;;;;;7.01;100.00;102212.69;5045719;28;45471;-80
2023/12/20 03:50:59;;;;;;;;;0.33;0.33;;;;;6.99;100.00;102206.59;5028114;28;45626;-80
2023/12/20 03:53:24;;;;;;;;;2.33;1.00;;;;;7.06;100.00;102237.22;5024037;28;45349;-80
2023/12/20 03:55:50;;;;;;;;;1.00;1.00;;;;;6.93;100.00;102217.16;5041629;28;45523;-80
2023/12/20 03:58:15;;;;;;;;;0.67;0.00;;;;;7.04;100.00;102246.84;5043494;28;46519;-81
2023/12/20 04:00:40;;;;;;;;;3.67;1.00;;;;;7.03;100.00;102247.75;5050613;28;45338;-81
2023/12/20 04:03:06;;;;;;;;;2.67;1.00;;;;;6.87;100.00;102226.00;5044117;28;45732;-80
2023/12/20 04:05:32;;;;;;;;;2.33;1.67;;;;;6.85;100.00;102214.59;5041071;28;45507;-80
2023/12/20 04:07:58;;;;;;;;;2.00;1.00;;;;;6.76;100.00;102210.31;5035690;28;46427;-80
2023/12/20 04:10:23;;;;;;;;;1.00;1.00;;;;;6.77;100.00;102213.81;5028711;28;45340;-80
2023/12/20 04:12:51;;;;;;;;;1.00;0.33;;;;;6.81;100.00;102228.66;5022928;28;45346;-81
2023/12/20 04:15:16;;;;;;;;;2.00;0.00;;;;;6.65;100.00;102206.91;5041089;28;45289;-80
2023/12/20 04:17:42;;;;;;;;;1.67;1.00;;;;;6.71;100.00;102227.00;5043370;28;46105;-80
2023/12/20 04:20:07;;;;;;;;;1.67;1.67;;;;;6.73;100.00;102239.25;5043361;28;45213;-80
2023/12/20 04:22:33;;;;;;;;;1.00;1.00;;;;;6.64;100.00;102231.44;5043549;28;45439;-80
2023/12/20 04:24:58;;;;;;;;;0.00;0.00;;;;;6.50;100.00;102209.66;5020822;28;45456;-80
2023/12/20 04:27:23;;;;;;;;;4.00;1.00;;;;;6.49;100.00;102213.16;5013272;28;67721;-80
2023/12/20 04:29:49;;;;;;;;;1.00;1.00;;;;;6.62;100.00;102248.97;5025921;28;45236;-81
2023/12/20 04:32:14;;;;;;;;;1.67;1.33;;;;;6.46;100.00;102228.97;5039740;28;45269;-80
2023/12/20 04:34:42;;;;;;;;;1.33;1.33;;;;;6.57;100.00;102249.91;5043650;28;45579;-80
2023/12/20 04:37:07;;;;;;;;;2.00;1.00;;;;;6.48;100.00;102240.31;5052805;28;45603;-79
2023/12/20 04:39:33;;;;;;;;;6.00;2.00;;;;;6.41;100.00;102232.50;5042692;28;49132;-80
2023/12/20 04:41:58;;;;;;;;;1.33;0.33;;;;;6.52;100.00;102251.69;5042435;28;45532;-80
2023/12/20 04:44:26;;;;;;;;;1.00;1.00;;;;;6.49;100.00;102238.56;5030061;28;45412;-81
2023/12/20 04:46:52;;;;;;;;;2.33;1.67;;;;;6.43;100.00;102236.00;5027706;28;46110;-80
2023/12/20 04:49:17;;;;;;;;;1.00;1.00;;;;;6.35;100.00;102233.41;5026812;28;45372;-80
2023/12/20 04:51:42;;;;;;;;;0.33;0.33;;;;;6.27;100.00;102216.84;5046439;28;45348;-80
2023/12/20 04:54:08;;;;;;;;;1.00;0.00;;;;;6.34;100.00;102223.81;5042343;28;45571;-80
2023/12/20 04:56:33;;;;;;;;;3.00;1.00;;;;;6.42;100.00;102250.00;5023841;28;46158;-80
2023/12/20 04:58:58;;;;;;;;;0.67;0.67;;;;;6.24;100.00;102217.75;5036841;28;58116;-80
2023/12/20 05:01:24;;;;;;;;;0.00;0.00;;;;;6.39;100.00;102243.03;5012687;28;45524;-80
2023/12/20 05:03:49;;;;;;;;;1.33;1.00;;;;;6.36;100.00;102237.78;5044032;28;45623;-80
2023/12/20 05:06:17;;;;;;;;;3.33;2.67;;;;;6.41;100.00;102249.16;5048853;28;51166;-80
2023/12/20 05:08:43;;;;;;;;;2.33;2.00;;;;;6.32;100.00;102222.91;5021697;28;45656;-80
2023/12/20 05:11:08;;;;;;;;;1.00;1.00;;;;;6.45;100.00;102248.22;5040025;28;45496;-80
2023/12/20 05:13:33;;;;;;;;;6.00;1.00;;;;;6.46;100.00;102252.59;5022612;28;45605;-80
2023/12/20 05:15:59;;;;;;;;;1.00;1.00;;;;;6.35;100.00;102232.56;5022787;28;54424;-80
2023/12/20 05:18:24;;;;;;;;;1.67;1.67;;;;;6.47;100.00;102257.00;5039762;28;47192;-80
2023/12/20 05:20:51;;;;;;;;;1.00;1.00;;;;;6.33;100.00;102229.94;5022179;28;45420;-80
2023/12/20 05:23:17;;;;;;;;;0.67;0.67;;;;;6.42;100.00;102244.75;5040942;28;45310;-80
2023/12/20 05:25:42;;;;;;;;;2.00;2.00;;;;;6.27;100.00;102225.59;5040765;28;45587;-80
2023/12/20 05:28:07;;;;;;;;;1.00;1.00;;;;;6.35;100.00;102237.81;5049634;28;44707;-80
2023/12/20 05:30:33;;;;;;;;;2.67;1.00;;;;;6.41;100.00;102251.78;5041944;28;45302;-80
2023/12/20 05:32:58;;;;;;;;;2.00;1.00;;;;;6.40;100.00;102246.53;5022993;28;57332;-79
2023/12/20 05:35:23;;;;;;;;;1.00;1.00;;;;;6.25;100.00;102237.84;5042809;28;45274;-80
2023/12/20 05:37:49;;;;;;;;;3.67;1.67;;;;;6.39;100.00;102256.16;5020845;28;45387;-79
2023/12/20 05:40:17;;;;;;;;;0.67;0.67;;;;;6.39;100.00;102266.66;5032984;28;45373;-79
2023/12/20 05:42:43;;;;;;;;;1.33;1.33;;;;;6.25;100.00;102247.47;5021419;28;45371;-80
2023/12/20 05:45:14;;;;;;;;;4.33;2.00;;;;;6.32;100.00;102269.34;5040009;28;46202;-80
2023/12/20 05:47:39;;;;;;;;;2.00;2.00;;;;;6.29;100.00;102254.47;5039341;28;45425;-80
2023/12/20 05:50:05;;;;;;;;;3.67;1.00;;;;;6.26;100.00;102251.88;5037987;28;45339;-80
2023/12/20 05:52:30;;;;;;;;;1.67;1.00;;;;;6.26;100.00;102265.88;5040161;28;45356;-80
2023/12/20 05:54:57;;;;;;;;;3.00;1.67;;;;;6.22;100.00;102263.28;5020098;28;48007;-80
2023/12/20 05:57:23;;;;;;;;;6.00;1.33;;;;;6.30;100.00;102282.50;5019359;28;45389;-78
2023/12/20 05:59:48;;;;;;;;;1.33;1.33;;;;;6.15;100.00;102270.31;5037875;28;45442;-79
2023/12/20 06:02:14;;;;;;;;;1.00;1.00;;;;;6.27;100.00;102279.91;5020545;28;53664;-79
2023/12/20 06:04:42;;;;;;;;;3.00;2.00;;;;;6.15;100.00;102264.22;5022482;28;50309;-79
2023/12/20 06:07:07;;;;;;;;;3.00;1.00;;;;;6.17;100.00;102284.31;5041097;28;45504;-79
2023/12/20 06:09:32;;;;;;;;;2.33;2.33;;;;;6.21;100.00;102293.06;5039291;28;52988;-79
2023/12/20 06:12:03;;;;;;;;;6.00;2.00;;;;;6.23;100.00;102300.06;5041189;28;45554;-79
2023/12/20 06:14:30;;;;;;;;;1.00;1.00;;;;;6.24;100.00;102300.94;5040684;28;46836;-79
2023/12/20 06:16:55;;;;;;;;;3.00;1.00;;;;;6.23;100.00;102291.28;5040736;28;45475;-79
2023/12/20 06:19:21;;;;;;;;;2.33;0.00;;;;;6.21;100.00;102287.81;5041837;28;45411;-79
2023/12/20 06:21:46;;;;;;;;;1.00;1.00;;;;;6.18;100.00;102287.84;5024233;28;45839;-78
2023/12/20 06:24:11;;;;;;;;;6.00;1.00;;;;;6.16;100.00;102292.19;5033704;28;60222;-81
2023/12/20 06:26:37;;;;;;;;;1.33;1.00;;;;;6.14;100.00;102291.34;5023321;28;45353;-82
2023/12/20 06:29:02;;;;;;;;;2.00;2.00;;;;;6.14;100.00;102294.84;5042378;28;45408;-82
2023/12/20 06:31:28;;;;;;;;;3.00;3.00;;;;;6.13;100.00;102289.59;5040032;28;45442;-82
2023/12/20 06:33:57;;;;;;;;;1.00;1.00;;;;;6.07;100.00;102284.38;5040475;28;46087;-82
2023/12/20 06:36:28;;;;;;;;;2.00;2.00;;;;;5.99;100.00;102273.06;5023859;28;45338;-81
2023/12/20 06:38:54;;;;;;;;;2.00;1.00;;;;;6.02;100.00;102276.50;5042923;28;45246;-81
2023/12/20 06:41:19;;;;;;;;;1.67;1.00;;;;;6.06;100.00;102282.63;5045610;28;45839;-81
2023/12/20 06:43:44;;;;;;;;;2.67;1.33;;;;;6.04;100.00;102276.50;5024215;28;47792;-81
2023/12/20 06:46:11;;;;;;;;;2.33;1.67;;;;;5.96;100.00;102275.66;5040957;28;45431;-81
2023/12/20 06:48:36;;;;;;;;;1.00;1.00;;;;;5.92;100.00;102277.47;5021147;28;45506;-82
2023/12/20 06:51:02;;;;;;;;;2.00;2.00;;;;;5.91;100.00;102287.97;5023473;28;45541;-82
2023/12/20 06:53:27;;;;;;;;;1.33;1.00;;;;;5.99;100.00;102297.53;5023287;28;45366;-81
2023/12/20 06:55:56;;;;;;;;;3.00;2.00;;;;;5.99;100.00;102308.03;5024515;28;45385;-82
2023/12/20 06:58:22;;;;;;;;;2.00;2.00;;;;;5.85;100.00;102275.69;5024519;28;45471;-82
2023/12/20 07:00:47;;;;;;;;;3.67;2.00;;;;;5.96;100.00;102296.66;5024076;28;45396;-82
2023/12/20 07:03:13;;;;;;;;;3.00;1.00;;;;;5.70;100.00;102262.63;5041569;28;45342;-81
2023/12/20 07:05:38;;;;;;;;;0.00;0.00;;;;;5.82;100.00;102287.97;5041711;28;45281;-81
2023/12/20 07:08:04;;;;;;;;;2.00;2.00;;;;;5.85;100.00;102296.72;5023608;28;45349;-82
2023/12/20 07:10:29;;;;;;;;;3.67;2.00;;;;;5.89;100.00;102308.09;5039821;28;45430;-82
2023/12/20 07:12:55;;;;;;;;;3.67;3.67;;;;;5.67;100.00;102274.00;5032373;28;50870;-81
2023/12/20 07:15:21;;;;;;;;;4.67;2.00;;;;;5.78;100.00;102303.72;5042218;28;45350;-81
2023/12/20 07:17:47;;;;;;;;;5.00;2.33;;;;;5.80;100.00;102301.09;5050435;28;45345;-81
2023/12/20 07:20:12;;;;;;;;;6.33;4.33;;;;;5.73;100.00;102300.22;5045244;28;45305;-82
2023/12/20 07:22:38;;;;;;;;;2.67;2.67;;;;;5.81;100.00;102309.84;5023135;28;45569;-81
2023/12/20 07:25:04;;;;;;;;;4.00;2.33;;;;;5.75;100.00;102309.00;5022205;28;45362;-82
2023/12/20 07:27:30;;;;;;;;;2.00;2.00;;;;;5.71;100.00;102316.88;5050342;28;45264;-81
2023/12/20 07:29:55;;;;;;;;;2.00;2.00;;;;;5.62;100.00;102306.41;5024898;28;45389;-82
2023/12/20 07:32:20;;;;;;;;;4.00;3.00;;;;;5.67;100.00;102325.63;5040962;28;45273;-81
2023/12/20 07:34:46;;;;;;;;;1.67;1.67;;;;;5.64;100.00;102325.63;5039434;28;45294;-82
2023/12/20 07:37:11;;;;;;;;;5.67;4.67;;;;;5.56;100.00;102324.78;5039894;28;45401;-81
2023/12/20 07:39:40;;;;;;;;;1.33;1.00;;;;;5.43;100.00;102302.94;5039478;28;45637;-81
2023/12/20 07:42:07;;;;;;;;;3.00;2.67;;;;;5.54;100.00;102324.78;5039405;28;46165;-82
2023/12/20 07:44:32;;;;;;;;;3.33;3.00;;;;;5.50;100.00;102309.91;5040593;28;45374;-81
2023/12/20 07:46:58;;;;;;;;;7.00;2.33;;;;;5.41;100.00;102298.56;5038886;28;45389;-81
2023/12/20 07:49:23;;;;;;;;;3.00;2.33;;;;;5.56;100.00;102324.78;5042267;28;45545;-82
2023/12/20 07:51:49;;;;;;;;;4.67;4.00;;;;;5.54;100.00;102316.91;5032173;28;46449;-81
2023/12/20 07:54:22;;;;;;;;;6.00;3.00;;;;;5.46;100.00;102318.69;5052394;28;45336;-82
2023/12/20 07:56:49;;;;;;;;;6.67;4.33;;;;;5.62;100.00;102349.28;5041475;28;45403;-82
2023/12/20 07:59:14;;;;;;;;;4.00;4.00;;;;;5.60;100.00;102342.25;5040957;28;45381;-82
2023/12/20 08:01:39;;;;;;;;;7.00;4.33;;;;;5.42;100.00;102306.44;5039860;28;45406;-82
2023/12/20 08:04:05;;;;;;;;;2.33;2.33;;;;;5.61;100.00;102326.53;5018585;28;45448;-82
2023/12/20 08:06:30;;;;;;;;;6.33;3.00;;;;;5.69;100.00;102337.84;5033671;28;45368;-81
2023/12/20 08:08:55;;;;;;;;;4.00;4.00;;;;;5.68;100.00;102316.88;5040032;28;50818;-81
2023/12/20 08:11:20;;;;;;;;;3.33;3.33;;;;;5.74;100.00;102333.50;5040713;28;45953;-82
2023/12/20 08:13:46;;;;;;;;;5.00;3.00;;;;;5.79;100.00;102330.84;5039962;28;45279;-81
2023/12/20 08:16:15;;;;;;;;;3.00;2.67;;;;;5.78;100.00;102321.22;5039729;28;45225;-81
2023/12/20 08:18:40;;;;;;;;;4.33;3.00;;;;;5.70;100.00;102304.63;5018428;28;45522;-81
2023/12/20 08:21:08;;;;;;;;;2.33;2.33;;;;;5.90;100.00;102336.97;5032730;28;45400;-82
2023/12/20 08:23:36;;;;;;;;;2.67;2.33;;;;;5.78;100.00;102308.97;5020820;28;45512;-81
2023/12/20 08:26:09;;;;;;;;;2.67;1.67;;;;;5.99;100.00;102322.94;5034678;28;45343;-81
2023/12/20 08:28:37;;;;;;;;;5.33;5.33;;;;;5.96;100.00;102307.19;5038153;28;45335;-81
2023/12/20 08:31:02;;;;;;;;;3.33;2.33;;;;;5.88;100.00;102295.84;5027636;28;47075;-81
2023/12/20 08:33:27;;;;;;;;;6.33;3.00;;;;;6.02;100.00;102310.66;5027387;28;45470;-82
2023/12/20 08:35:53;;;;;;;;;2.67;2.67;;;;;6.03;100.00;102317.66;5047780;28;45266;-81
2023/12/20 08:38:18;;;;;;;;;4.00;2.00;;;;;5.96;100.00;102291.41;5021773;28;47769;-81
2023/12/20 08:40:44;;;;;;;;;6.00;4.67;;;;;6.14;100.00;102321.13;5020207;28;47826;-82
2023/12/20 08:43:10;;;;;;;;;6.33;6.33;;;;;6.14;100.00;102322.88;5040591;28;45421;-82
2023/12/20 08:45:35;;;;;;;;;7.67;6.00;;;;;6.08;100.00;102305.41;5022180;28;45360;-82
2023/12/20 08:48:01;;;;;;;;;7.00;4.33;;;;;6.20;100.00;102312.31;5039729;28;45372;-81
2023/12/20 08:50:26;;;;;;;;;1.67;1.00;;;;;6.28;100.00;102323.69;5019047;28;47747;-81
2023/12/20 08:52:51;;;;;;;;;7.00;6.67;;;;;6.30;100.00;102335.03;5044749;28;45390;-82
2023/12/20 08:55:19;;;;;;;;;1.33;1.33;;;;;6.35;100.00;102322.75;5045004;28;45493;-81
2023/12/20 08:57:45;;;;;;;;;8.00;6.00;;;;;6.28;100.00;102316.66;5020915;28;45610;-82
2023/12/20 09:00:11;;;;;;;;;3.67;3.67;;;;;6.24;100.00;102312.31;5019944;28;53223;-81
2023/12/20 09:02:37;;;;;;;;;6.67;3.67;;;;;6.35;100.00;102324.53;5026739;28;45455;-81
2023/12/20 09:05:03;;;;;;;;;7.00;4.33;;;;;6.35;100.00;102321.91;5056640;28;45385;-81
2023/12/20 09:07:31;;;;;;;;;7.33;4.33;;;;;6.55;100.00;102346.28;5044989;28;45283;-81
2023/12/20 09:09:59;;;;;;;;;6.00;3.00;;;;;6.70;100.00;102348.84;5028975;28;47856;-81
2023/12/20 09:12:24;;;;;;;;;10.33;4.00;;;;;6.88;100.00;102348.69;5039005;28;45360;-82
2023/12/20 09:14:51;;;;;;;;;6.00;6.00;;;;;7.00;100.00;102334.59;5038852;28;45394;-82
2023/12/20 09:17:22;;;;;;;;;2.33;1.67;;;;;6.97;100.00;102314.44;5038641;28;45297;-81
2023/12/20 09:19:47;;;;;;;;;7.33;3.00;;;;;7.18;100.00;102332.66;5050767;28;45668;-82
2023/12/20 09:22:15;;;;;;;;;2.00;2.00;;;;;7.25;100.00;102323.84;5043447;28;45437;-82
2023/12/20 09:24:41;;;;;;;;;2.00;2.00;;;;;7.25;100.00;102308.06;5025963;28;45364;-81
2023/12/20 09:30:52;;;;;;;;;;;;;;;;;;;;;
2023/12/20 09:34:17;;;;;;;;;;;;;;;;;;;;;
2023/12/20 09:37:03;;;;;;;;;3.00;3.00;;;;;7.47;100.00;102295.53;4971450;28;68727;-81
2023/12/20 09:39:49;;;;;;;;;;;;;;;;;;;;;
2023/12/20 09:42:38;;;;;;;;;4.00;2.00;;;;;7.51;100.00;102289.38;5043547;28;74246;-81
2023/12/20 09:45:25;;;;;;;;;6.00;2.33;;;;;7.46;100.00;102267.47;5034547;28;46005;-82
2023/12/20 09:51:46;;;;;;;;;3.00;2.00;;;;;7.58;100.00;102258.56;4960197;28;45407;-82
2023/12/20 09:54:55;;;;;;;;;2.00;2.00;;;;;7.92;100.00;102288.03;4938001;28;45499;-82
2023/12/20 09:57:21;;;;;;;;;4.00;3.00;;;;;7.78;100.00;102262.72;4870237;29;45603;-82
2023/12/20 10:00:35;;;;;;;;;2.00;2.00;;;;;7.85;100.00;102268.78;4926613;28;45455;-82
2023/12/20 10:03:01;;;;;;;;;2.00;2.00;;;;;8.35;100.00;102344.56;4942962;28;45528;-83
2023/12/20 10:05:35;;;;;;;;;3.67;2.00;;;;;7.77;100.00;102245.16;4961259;28;45642;-83
2023/12/20 10:08:07;;;;;;;;;5.33;2.00;;;;;8.07;100.00;102304.50;5016738;28;45522;-82
2023/12/20 10:11:02;;;;;;;;;;;;;;;;;;;;;
2023/12/20 10:13:44;;;;;;;;;3.00;3.00;;;;;7.90;100.00;102266.06;5044134;28;72214;-82
2023/12/20 10:16:09;;;;;;;;;2.00;2.00;;;;;8.44;100.00;102355.00;5020364;28;45536;-82
2023/12/20 10:22:31;;;;;;;;;5.67;3.33;;;;;8.52;100.00;102328.50;4989434;28;45266;-82
2023/12/20 10:25:31;;;;;;;;;3.00;2.00;;;;;7.98;100.00;102227.34;5041734;28;45453;-82
2023/12/20 10:28:22;;;;;;;;;7.33;3.00;;;;;8.44;100.00;102282.94;5052398;28;45547;-83
2023/12/20 10:30:48;;;;;;;;;3.00;3.00;;;;;8.26;100.00;102215.50;5024135;28;45445;-82
2023/12/20 10:33:13;;;;;;;;;2.00;2.00;;;;;8.79;100.00;102330.75;5025424;28;45475;-82
2023/12/20 10:39:59;;;;;;;;;;;;;;;;;;;;;
2023/12/20 10:42:55;;;;;;;;;7.33;4.00;;;;;8.19;100.00;102232.31;5047385;28;45470;-82
2023/12/20 10:46:09;;;;;;;;;;;;;;;;;;;;;
2023/12/20 10:53:20;;;;;;;;;4.33;3.00;;;;;8.82;100.00;102297.28;5025463;28;45646;-82
2023/12/20 10:56:31;;;;;;;;;2.00;2.00;;;;;8.39;100.00;102235.53;5037802;28;45252;-82
2023/12/20 10:58:59;;;;;;;;;2.33;2.00;;;;;8.84;100.00;102298.13;5034453;28;45360;-81
2023/12/20 11:02:05;;;;;;;;;3.00;2.00;;;;;8.38;100.00;102207.44;5022098;28;46185;-82
2023/12/20 11:04:54;;;;;;;;;4.00;2.33;;;;;8.31;100.00;102182.09;5011284;28;45442;-82
2023/12/20 11:08:11;;;;;;;;;6.67;3.00;;;;;8.91;100.00;102275.13;5022826;28;45340;-82
2023/12/20 11:14:10;;;;;;;;;5.67;3.00;;;;;8.38;100.00;102176.69;5008766;28;45385;-82
2023/12/20 11:17:01;;;;;;;;;3.00;2.00;;;;;8.50;100.00;102174.75;5021680;28;45984;-81
2023/12/20 11:19:27;;;;;;;;;2.00;2.00;;;;;8.86;100.00;102230.38;5022457;28;45519;-83
2023/12/20 11:22:35;;;;;;;;;;;;;;;;;;;;;
2023/12/20 11:25:54;;;;;;;;;3.00;2.67;;;;;9.11;100.00;102261.59;5035904;28;71903;-81
2023/12/20 11:28:37;;;;;;;;;2.00;2.00;;;;;8.92;100.00;102220.59;5018035;28;45464;-82
2023/12/20 11:31:56;;;;;;;;;2.00;0.67;;;;;8.70;100.00;102172.66;5023375;28;45442;-82
2023/12/20 12:07:04;;;;;;;;;5.33;2.33;;;;;9.48;100.00;102183.44;4864096;29;45509;-82
2023/12/20 12:10:03;;;;;;;;;;;;;;;;;;;;;
2023/12/20 12:13:18;;;;;;;;;4.00;3.00;;;;;9.37;100.00;102173.09;4934165;28;72340;-81
2023/12/20 12:15:57;;;;;;;;;3.00;2.00;;;;;9.20;100.00;102140.88;4948667;28;45446;-83
2023/12/20 12:19:11;;;;;;;;;;;;;;;;;;;;;
2023/12/20 12:21:37;;;;;;;;;1.67;1.67;;;;;9.53;100.00;102231.75;4938081;28;75090;-83
2023/12/20 12:24:07;;;;;;;;;4.67;2.00;;;;;9.31;100.00;102185.56;4976248;28;45587;-83
2023/12/20 12:26:32;;;;;;;;;6.33;4.67;;;;;9.70;100.00;102234.91;5003500;28;45529;-82
2023/12/20 12:28:57;;;;;;;;;4.00;3.00;;;;;9.65;100.00;102213.00;5037988;28;63192;-82
2023/12/20 12:31:25;;;;;;;;;3.00;2.00;;;;;9.70;100.00;102224.34;5021424;28;45612;-83
2023/12/20 12:33:50;;;;;;;;;2.33;2.33;;;;;9.54;100.00;102188.59;5021419;28;46189;-83
2023/12/20 12:36:17;;;;;;;;;8.00;3.00;;;;;9.62;100.00;102194.56;5016718;28;45706;-83
2023/12/20 12:38:42;;;;;;;;;3.33;1.67;;;;;9.76;100.00;102205.72;5034831;28;45396;-83
2023/12/20 12:41:15;;;;;;;;;3.33;2.33;;;;;9.65;100.00;102176.00;5016155;28;46954;-83
2023/12/20 12:43:43;;;;;;;;;3.00;3.00;;;;;9.94;100.00;102209.75;5029029;28;45368;-83